createdAt,value
2019-05-06T00:00:06.355Z,5.74
2019-05-06T00:02:35.537Z,5.78
2019-05-06T00:05:05.643Z,5.80
2019-05-06T00:07:34.810Z,5.81
2019-05-06T00:10:05.782Z,5.81
2019-05-06T00:12:35.062Z,5.81
2019-05-06T00:15:06.006Z,5.85
2019-05-06T00:17:35.170Z,5.89
2019-05-06T00:20:05.802Z,5.92
2019-05-06T00:22:34.985Z,5.97
2019-05-06T00:25:07.225Z,6.01
2019-05-06T00:27:47.016Z,6.05
2019-05-06T00:30:16.340Z,6.09
2019-05-06T00:32:45.490Z,6.14
2019-05-06T00:35:14.671Z,6.18
2019-05-06T00:37:44.264Z,6.23
2019-05-06T00:40:15.099Z,6.26
2019-05-06T00:42:54.092Z,6.29
2019-05-06T00:45:24.396Z,6.33
2019-05-06T00:47:53.687Z,6.37
2019-05-06T00:50:24.252Z,6.37
2019-05-06T00:52:54.688Z,6.34
2019-05-06T00:55:24.228Z,6.35
2019-05-06T00:57:54.494Z,6.36
2019-05-06T01:00:25.774Z,6.36
2019-05-06T01:02:55.037Z,6.37
2019-05-06T01:05:24.557Z,6.39
2019-05-06T01:07:54.931Z,6.43
2019-05-06T01:10:24.424Z,6.44
2019-05-06T01:13:01.370Z,6.43
2019-05-06T01:15:31.044Z,6.39
2019-05-06T01:18:00.211Z,6.36
2019-05-06T01:20:29.394Z,6.37
2019-05-06T01:22:58.550Z,6.36
2019-05-06T01:25:28.800Z,6.35
2019-05-06T01:27:57.954Z,6.34
2019-05-06T01:30:27.279Z,6.32
2019-05-06T01:32:56.595Z,6.34
2019-05-06T01:35:26.889Z,6.34
2019-05-06T01:38:00.575Z,6.34
2019-05-06T01:43:20.655Z,6.40
2019-05-06T01:45:49.828Z,6.38
2019-05-06T01:48:20.638Z,6.39
2019-05-06T01:50:49.815Z,6.41
2019-05-06T01:53:18.973Z,6.44
2019-05-06T01:55:48.144Z,6.46
2019-05-06T01:58:17.430Z,6.48
2019-05-06T02:00:46.639Z,6.47
2019-05-06T02:03:15.910Z,6.46
2019-05-06T02:05:45.099Z,6.45
2019-05-06T02:08:14.267Z,6.46
2019-05-06T02:10:43.651Z,6.47
2019-05-06T02:13:18.111Z,6.47
2019-05-06T02:15:50.270Z,6.46
2019-05-06T02:18:20.041Z,6.46
2019-05-06T02:20:51.075Z,6.46
2019-05-06T02:23:30.761Z,6.47
2019-05-06T02:25:59.941Z,6.45
2019-05-06T02:28:29.086Z,6.44
2019-05-06T02:30:59.873Z,6.43
2019-05-06T02:33:35.547Z,6.41
2019-05-06T02:36:08.750Z,6.42
2019-05-06T02:38:46.541Z,6.41
2019-05-06T02:41:08.821Z,6.40
2019-05-06T02:43:38.253Z,6.40
2019-05-06T02:46:07.393Z,6.40
2019-05-06T02:48:43.232Z,6.38
2019-05-06T02:51:13.626Z,6.36
2019-05-06T02:53:43.107Z,6.34
2019-05-06T02:56:13.351Z,6.29
2019-05-06T02:58:43.753Z,6.26
2019-05-06T03:01:19.167Z,6.21
2019-05-06T03:03:53.612Z,6.15
2019-05-06T03:06:27.687Z,6.08
2019-05-06T03:09:02.974Z,6.04
2019-05-06T03:11:36.056Z,6.00
2019-05-06T03:14:08.494Z,5.95
2019-05-06T03:16:43.702Z,5.92
2019-05-06T03:19:16.081Z,5.92
2019-05-06T03:21:49.988Z,5.89
2019-05-06T03:24:23.709Z,5.86
2019-05-06T03:26:59.758Z,5.86
2019-05-06T03:29:29.005Z,5.84
2019-05-06T03:31:58.272Z,5.84
2019-05-06T03:34:57.672Z,5.85
2019-05-06T03:37:16.255Z,5.85
2019-05-06T03:39:46.118Z,5.85
2019-05-06T03:42:19.436Z,5.85
2019-05-06T03:44:53.286Z,5.84
2019-05-06T03:47:34.462Z,5.83
2019-05-06T03:50:04.787Z,5.83
2019-05-06T03:52:39.409Z,5.82
2019-05-06T03:55:13.980Z,5.80
2019-05-06T03:57:46.075Z,5.78
2019-05-06T04:00:16.507Z,5.78
2019-05-06T04:02:54.125Z,5.77
2019-05-06T04:05:24.053Z,5.77
2019-05-06T04:07:53.353Z,5.77
2019-05-06T04:10:26.568Z,5.78
2019-05-06T04:12:55.988Z,5.80
2019-05-06T04:15:27.032Z,5.82
2019-05-06T04:17:58.297Z,5.85
2019-05-06T04:20:33.954Z,5.89
2019-05-06T04:23:06.774Z,5.92
2019-05-06T04:25:59.923Z,5.93
2019-05-06T04:28:43.605Z,5.95
2019-05-06T04:31:14.778Z,5.96
2019-05-06T04:34:05.349Z,5.97
2019-05-06T04:36:17.969Z,5.98
2019-05-06T04:38:48.505Z,6.00
2019-05-06T04:41:23.101Z,6.01
2019-05-06T04:43:53.559Z,6.02
2019-05-06T04:46:28.617Z,6.03
2019-05-06T04:49:10.192Z,6.04
2019-05-06T04:51:43.329Z,6.07
2019-05-06T04:54:15.334Z,6.10
2019-05-06T04:56:44.718Z,6.15
2019-05-06T04:59:19.487Z,6.20
2019-05-06T05:01:53.744Z,6.24
2019-05-06T05:04:31.693Z,6.29
2019-05-06T05:06:57.859Z,6.33
2019-05-06T05:09:27.901Z,6.37
2019-05-06T05:11:59.019Z,6.41
2019-05-06T05:14:32.667Z,6.45
2019-05-06T05:17:07.198Z,6.47
2019-05-06T05:19:43.941Z,6.50
2019-05-06T05:22:18.533Z,6.54
2019-05-06T05:24:51.951Z,6.55
2019-05-06T05:27:22.142Z,6.57
2019-05-06T05:29:52.281Z,6.61
2019-05-06T05:32:26.731Z,6.63
2019-05-06T05:34:57.137Z,6.65
2019-05-06T05:37:28.242Z,6.68
2019-05-06T05:40:03.079Z,6.70
2019-05-06T05:42:36.997Z,6.73
2019-05-06T05:45:07.398Z,6.76
2019-05-06T05:47:42.529Z,6.80
2019-05-06T05:50:22.910Z,6.85
2019-05-06T05:52:57.472Z,6.92
2019-05-06T05:55:28.612Z,6.98
2019-05-06T05:58:05.295Z,7.06
2019-05-06T06:00:37.101Z,7.11
2019-05-06T06:03:12.666Z,7.19
2019-05-06T06:05:46.501Z,7.27
2019-05-06T06:08:21.824Z,7.34
2019-05-06T06:10:56.484Z,7.39
2019-05-06T06:13:32.001Z,7.46
2019-05-06T06:16:07.481Z,7.54
2019-05-06T06:18:44.489Z,7.62
2019-05-06T06:21:34.494Z,7.70
2019-05-06T06:24:14.147Z,7.73
2019-05-06T06:26:46.740Z,7.81
2019-05-06T06:29:18.436Z,7.87
2019-05-06T06:32:10.581Z,7.96
2019-05-06T06:34:44.547Z,8.09
2019-05-06T06:37:28.735Z,8.24
2019-05-06T06:40:07.543Z,8.34
2019-05-06T06:42:40.182Z,8.48
2019-05-06T06:45:09.669Z,8.61
2019-05-06T06:47:43.889Z,8.73
2019-05-06T06:50:13.749Z,8.83
2019-05-06T06:52:45.125Z,8.94
2019-05-06T06:55:18.538Z,9.01
2019-05-06T06:57:51.958Z,9.16
2019-05-06T07:00:29.149Z,9.34
2019-05-06T07:03:03.464Z,9.48
2019-05-06T07:05:42.326Z,9.60
2019-05-06T07:08:15.857Z,9.71
2019-05-06T07:10:45.286Z,9.81
2019-05-06T07:13:23.216Z,9.88
2019-05-06T07:15:54.968Z,9.98
2019-05-06T07:18:24.650Z,10.06
2019-05-06T07:20:57.736Z,10.13
2019-05-06T07:23:32.862Z,10.15
2019-05-06T07:26:03.167Z,10.15
2019-05-06T07:28:43.718Z,10.21
2019-05-06T07:31:21.139Z,10.32
2019-05-06T07:33:48.310Z,10.40
2019-05-06T07:36:20.211Z,10.40
2019-05-06T07:38:52.988Z,10.42
2019-05-06T07:41:32.509Z,10.50
2019-05-06T07:44:05.635Z,10.68
2019-05-06T07:46:42.765Z,10.90
2019-05-06T07:49:12.706Z,11.23
2019-05-06T07:51:45.486Z,11.57
2019-05-06T07:54:17.377Z,11.82
2019-05-06T07:56:52.444Z,12.14
2019-05-06T07:59:23.660Z,12.39
2019-05-06T08:01:56.634Z,12.69
2019-05-06T08:04:28.286Z,13.00
2019-05-06T08:06:59.882Z,13.13
2019-05-06T08:09:29.186Z,13.41
2019-05-06T08:12:02.791Z,13.50
2019-05-06T08:14:43.862Z,13.38
2019-05-06T08:17:17.962Z,13.58
2019-05-06T08:19:50.212Z,13.88
2019-05-06T08:22:22.711Z,14.32
2019-05-06T08:24:53.211Z,14.24
2019-05-06T08:27:27.459Z,13.79
2019-05-06T08:29:57.010Z,13.52
2019-05-06T08:32:26.388Z,13.69
2019-05-06T08:34:56.253Z,14.00
2019-05-06T08:37:36.895Z,13.88
2019-05-06T08:40:11.954Z,13.82
2019-05-06T08:42:42.532Z,14.47
2019-05-06T08:45:16.231Z,14.50
2019-05-06T08:47:45.435Z,14.97
2019-05-06T08:50:34.715Z,14.55
2019-05-06T08:53:15.457Z,14.52
2019-05-06T08:55:48.462Z,14.46
2019-05-06T08:58:22.482Z,14.46
2019-05-06T09:01:09.573Z,14.80
2019-05-06T09:03:42.246Z,14.94
2019-05-06T09:06:26.500Z,15.19
2019-05-06T09:08:46.101Z,14.89
2019-05-06T09:11:19.362Z,14.95
2019-05-06T09:13:51.992Z,14.61
2019-05-06T09:16:22.979Z,14.68
2019-05-06T09:18:53.544Z,14.69
2019-05-06T09:21:23.256Z,14.44
2019-05-06T09:23:59.312Z,14.81
2019-05-06T09:26:39.029Z,14.61
2019-05-06T09:29:12.819Z,14.28
2019-05-06T09:31:46.651Z,14.44
2019-05-06T09:34:32.593Z,14.58
2019-05-06T09:37:18.454Z,14.88
2019-05-06T09:39:48.329Z,14.53
2019-05-06T09:42:19.162Z,14.70
2019-05-06T09:44:50.624Z,14.83
2019-05-06T09:47:26.503Z,15.02
2019-05-06T09:49:58.502Z,15.30
2019-05-06T09:52:29.407Z,15.41
2019-05-06T09:55:03.516Z,15.38
2019-05-06T09:57:36.149Z,15.05
2019-05-06T10:00:08.084Z,14.98
2019-05-06T10:02:39.651Z,15.28
2019-05-06T10:05:11.975Z,15.20
2019-05-06T10:07:41.273Z,14.92
2019-05-06T10:10:10.571Z,14.91
2019-05-06T10:12:42.024Z,14.95
2019-05-06T10:15:12.729Z,14.74
2019-05-06T10:17:43.317Z,15.01
2019-05-06T10:20:15.318Z,15.36
2019-05-06T10:22:45.470Z,15.54
2019-05-06T10:25:16.833Z,15.88
2019-05-06T10:27:52.506Z,16.07
2019-05-06T10:30:25.084Z,16.23
2019-05-06T10:32:56.103Z,16.26
2019-05-06T10:35:29.495Z,15.93
2019-05-06T10:38:15.238Z,15.54
2019-05-06T10:41:03.664Z,16.02
2019-05-06T10:43:43.097Z,16.31
2019-05-06T10:46:13.167Z,15.99
2019-05-06T10:48:42.684Z,15.81
2019-05-06T10:51:17.293Z,15.80
2019-05-06T10:53:51.254Z,15.58
2019-05-06T10:56:32.191Z,15.64
2019-05-06T10:59:08.591Z,15.91
2019-05-06T11:01:43.378Z,15.73
2019-05-06T11:04:15.342Z,15.71
2019-05-06T11:06:45.562Z,15.61
2019-05-06T11:09:14.835Z,15.34
2019-05-06T11:11:44.539Z,15.18
2019-05-06T11:14:15.353Z,15.01
2019-05-06T11:16:46.411Z,15.09
2019-05-06T11:19:17.810Z,15.16
2019-05-06T11:21:53.171Z,15.10
2019-05-06T11:24:26.679Z,15.04
2019-05-06T11:26:58.704Z,14.94
2019-05-06T11:29:33.913Z,14.77
2019-05-06T11:32:09.477Z,14.69
2019-05-06T11:34:42.906Z,14.97
2019-05-06T11:37:43.825Z,15.04
2019-05-06T11:40:01.654Z,15.25
2019-05-06T11:42:35.286Z,15.49
2019-05-06T11:45:03.420Z,15.18
2019-05-06T11:47:35.238Z,14.79
2019-05-06T11:50:08.446Z,14.51
2019-05-06T11:52:37.987Z,14.29
2019-05-06T11:55:08.881Z,14.45
2019-05-06T11:57:42.064Z,14.84
2019-05-06T12:00:15.151Z,15.20
2019-05-06T12:02:48.577Z,15.54
2019-05-06T12:05:18.463Z,15.21
2019-05-06T12:08:01.798Z,14.91
2019-05-06T12:10:23.042Z,14.59
2019-05-06T12:12:55.654Z,14.46
2019-05-06T12:15:27.247Z,14.68
2019-05-06T12:18:04.020Z,15.05
2019-05-06T12:20:35.841Z,15.32
2019-05-06T12:23:05.697Z,15.68
2019-05-06T12:25:38.307Z,15.93
2019-05-06T12:28:09.101Z,15.66
2019-05-06T12:30:42.600Z,15.29
2019-05-06T12:33:13.251Z,15.21
2019-05-06T12:35:45.644Z,15.56
2019-05-06T12:38:29.498Z,15.94
2019-05-06T12:40:52.983Z,16.11
2019-05-06T12:43:29.769Z,15.79
2019-05-06T12:46:07.258Z,15.53
2019-05-06T12:48:47.300Z,15.38
2019-05-06T12:51:22.722Z,15.37
2019-05-06T12:53:53.127Z,15.23
2019-05-06T12:56:27.873Z,15.00
2019-05-06T12:58:59.437Z,14.79
2019-05-06T13:01:33.958Z,14.52
2019-05-06T13:04:05.354Z,14.20
2019-05-06T13:06:45.840Z,13.86
2019-05-06T13:09:16.060Z,13.58
2019-05-06T13:11:47.553Z,13.37
2019-05-06T13:14:22.384Z,13.19
2019-05-06T13:16:53.693Z,13.02
2019-05-06T13:19:25.892Z,12.89
2019-05-06T13:21:57.731Z,12.75
2019-05-06T13:24:29.537Z,12.62
2019-05-06T13:27:02.626Z,12.48
2019-05-06T13:29:36.821Z,12.39
2019-05-06T13:32:12.763Z,12.34
2019-05-06T13:34:44.954Z,12.31
2019-05-06T13:37:15.157Z,12.29
2019-05-06T13:39:48.643Z,12.23
2019-05-06T13:42:22.609Z,12.15
2019-05-06T13:44:53.665Z,12.08
2019-05-06T13:47:41.674Z,12.02
2019-05-06T13:50:15.406Z,11.96
2019-05-06T13:52:48.258Z,11.89
2019-05-06T13:55:21.914Z,11.87
2019-05-06T13:57:53.221Z,11.88
2019-05-06T14:00:26.438Z,11.85
2019-05-06T14:02:57.666Z,11.86
2019-05-06T14:05:26.818Z,11.86
2019-05-06T14:08:02.555Z,11.87
2019-05-06T14:10:33.917Z,11.91
2019-05-06T14:13:03.276Z,11.93
2019-05-06T14:15:35.005Z,11.94
2019-05-06T14:18:13.730Z,11.94
2019-05-06T14:20:44.863Z,11.93
2019-05-06T14:23:16.675Z,11.88
2019-05-06T14:25:58.784Z,11.79
2019-05-06T14:28:33.138Z,11.72
2019-05-06T14:31:08.571Z,11.73
2019-05-06T14:33:42.799Z,11.83
2019-05-06T14:36:13.790Z,11.89
2019-05-06T14:38:46.036Z,11.97
2019-05-06T14:41:18.833Z,12.17
2019-05-06T14:43:52.893Z,12.54
2019-05-06T14:46:24.475Z,12.65
2019-05-06T14:48:55.917Z,12.63
2019-05-06T14:51:25.468Z,12.62
2019-05-06T14:53:54.745Z,12.60
2019-05-06T14:56:34.974Z,12.65
2019-05-06T14:59:07.130Z,12.96
2019-05-06T15:01:39.854Z,13.23
2019-05-06T15:04:12.565Z,13.41
2019-05-06T15:06:42.691Z,13.51
2019-05-06T15:09:15.014Z,13.50
2019-05-06T15:11:46.943Z,13.55
2019-05-06T15:14:16.384Z,13.52
2019-05-06T15:16:53.413Z,13.38
2019-05-06T15:19:25.077Z,13.27
2019-05-06T15:21:57.327Z,13.10
2019-05-06T15:24:26.677Z,12.94
2019-05-06T15:26:58.794Z,12.73
2019-05-06T15:29:28.052Z,12.58
2019-05-06T15:32:03.112Z,12.47
2019-05-06T15:34:35.923Z,12.35
2019-05-06T15:37:26.117Z,12.23
2019-05-06T15:39:58.104Z,12.10
2019-05-06T15:42:28.856Z,12.02
2019-05-06T15:44:59.217Z,11.98
2019-05-06T15:47:32.111Z,11.92
2019-05-06T15:50:01.283Z,11.76
2019-05-06T15:52:32.465Z,11.57
2019-05-06T15:55:03.246Z,11.43
2019-05-06T15:57:32.903Z,11.32
2019-05-06T16:00:02.750Z,11.19
2019-05-06T16:02:33.904Z,11.12
2019-05-06T16:05:11.614Z,11.00
2019-05-06T16:07:37.202Z,10.89
2019-05-06T16:10:07.574Z,10.75
2019-05-06T16:12:36.784Z,10.56
2019-05-06T16:15:12.840Z,10.47
2019-05-06T16:17:42.615Z,10.47
2019-05-06T16:20:12.981Z,10.42
2019-05-06T16:22:44.616Z,10.34
2019-05-06T16:25:16.537Z,10.24
2019-05-06T16:27:51.243Z,10.24
2019-05-06T16:30:24.084Z,10.23
2019-05-06T16:32:52.711Z,10.25
2019-05-06T16:35:22.886Z,10.24
2019-05-06T16:37:52.278Z,10.24
2019-05-06T16:40:24.603Z,10.23
2019-05-06T16:42:56.745Z,10.21
2019-05-06T16:45:26.744Z,10.24
2019-05-06T16:47:56.151Z,10.24
2019-05-06T16:50:29.584Z,10.25
2019-05-06T16:53:02.764Z,10.32
2019-05-06T16:55:55.050Z,10.35
2019-05-06T16:58:25.334Z,10.17
2019-05-06T17:00:54.577Z,10.05
2019-05-06T17:03:25.536Z,10.04
2019-05-06T17:06:15.659Z,10.03
2019-05-06T17:08:44.862Z,10.01
2019-05-06T17:11:26.864Z,9.94
2019-05-06T17:13:46.224Z,9.89
2019-05-06T17:16:15.859Z,9.86
2019-05-06T17:18:45.044Z,9.78
2019-05-06T17:21:15.920Z,9.73
2019-05-06T17:23:47.635Z,9.69
2019-05-06T17:26:16.875Z,9.66
2019-05-06T17:28:57.045Z,9.68
2019-05-06T17:31:44.721Z,9.69
2019-05-06T17:34:32.252Z,9.73
2019-05-06T17:37:06.341Z,9.84
2019-05-06T17:39:42.410Z,9.93
2019-05-06T17:42:14.091Z,10.01
2019-05-06T17:44:43.410Z,10.10
2019-05-06T17:47:32.944Z,10.11
2019-05-06T17:50:05.279Z,10.12
2019-05-06T17:52:34.472Z,10.06
2019-05-06T17:55:04.223Z,10.04
2019-05-06T17:57:33.245Z,10.01
2019-05-06T18:00:04.308Z,9.98
2019-05-06T18:02:33.427Z,9.97
2019-05-06T18:05:03.579Z,10.00
2019-05-06T18:07:33.104Z,10.00
2019-05-06T18:10:03.216Z,9.97
2019-05-06T18:12:36.076Z,9.92
2019-05-06T18:15:06.493Z,9.93
2019-05-06T18:17:35.855Z,9.96
2019-05-06T18:20:06.610Z,10.01
2019-05-06T18:22:35.875Z,10.04
2019-05-06T18:25:05.790Z,9.99
2019-05-06T18:27:37.152Z,9.99
2019-05-06T18:30:17.736Z,10.00
2019-05-06T18:32:38.485Z,10.00
2019-05-06T18:35:08.516Z,10.00
2019-05-06T18:37:37.743Z,9.91
2019-05-06T18:40:06.996Z,9.89
2019-05-06T18:42:36.541Z,9.86
2019-05-06T18:45:08.458Z,9.85
2019-05-06T18:47:37.849Z,9.85
2019-05-06T18:50:09.959Z,9.84
2019-05-06T18:52:40.519Z,9.81
2019-05-06T18:55:12.245Z,9.80
2019-05-06T18:57:42.335Z,9.81
2019-05-06T19:00:11.971Z,9.83
2019-05-06T19:02:42.336Z,9.83
2019-05-06T19:05:19.332Z,9.83
2019-05-06T19:07:48.544Z,9.83
2019-05-06T19:10:33.228Z,9.82
2019-05-06T19:13:02.715Z,9.81
2019-05-06T19:15:33.363Z,9.80
2019-05-06T19:18:02.567Z,9.81
2019-05-06T19:20:33.873Z,9.80
2019-05-06T19:23:03.293Z,9.78
2019-05-06T19:25:34.690Z,9.76
2019-05-06T19:28:05.269Z,9.77
2019-05-06T19:30:36.431Z,9.76
2019-05-06T19:33:07.172Z,9.74
2019-05-06T19:35:37.117Z,9.71
2019-05-06T19:38:06.412Z,9.66
2019-05-06T19:40:35.592Z,9.64
2019-05-06T19:43:04.891Z,9.63
2019-05-06T19:45:34.651Z,9.59
2019-05-06T19:48:03.468Z,9.57
2019-05-06T19:50:33.174Z,9.54
2019-05-06T19:53:01.745Z,9.51
2019-05-06T19:55:30.917Z,9.46
2019-05-06T19:58:02.199Z,9.45
2019-05-06T20:00:32.569Z,9.41
2019-05-06T20:03:02.709Z,9.37
2019-05-06T20:05:39.587Z,9.32
2019-05-06T20:08:23.163Z,9.29
2019-05-06T20:11:13.099Z,9.25
2019-05-06T20:13:43.140Z,9.20
2019-05-06T20:16:12.421Z,9.18
2019-05-06T20:18:42.575Z,9.16
2019-05-06T20:21:12.107Z,9.16
2019-05-06T20:23:42.528Z,9.14
2019-05-06T20:26:12.484Z,9.12
2019-05-06T20:28:42.969Z,9.10
2019-05-06T20:31:12.439Z,9.08
2019-05-06T20:33:42.160Z,9.04
2019-05-06T20:36:12.575Z,9.01
2019-05-06T20:38:42.393Z,8.98
2019-05-06T20:41:12.620Z,8.98
2019-05-06T20:43:42.416Z,8.93
2019-05-06T20:46:12.412Z,8.93
2019-05-06T20:48:42.148Z,8.88
2019-05-06T20:51:12.324Z,8.86
2019-05-06T20:53:43.145Z,8.84
2019-05-06T20:56:12.524Z,8.79
2019-05-06T20:58:42.312Z,8.76
2019-05-06T21:01:11.493Z,8.72
2019-05-06T21:03:42.358Z,8.67
2019-05-06T21:06:13.152Z,8.62
2019-05-06T21:08:42.891Z,8.60
2019-05-06T21:11:25.658Z,8.57
2019-05-06T21:13:43.320Z,8.55
2019-05-06T21:16:13.019Z,8.54
2019-05-06T21:18:42.309Z,8.48
2019-05-06T21:21:13.461Z,8.41
2019-05-06T21:23:42.828Z,8.38
2019-05-06T21:26:13.642Z,8.33
2019-05-06T21:28:46.292Z,8.32
2019-05-06T21:31:13.904Z,8.32
2019-05-06T21:33:43.067Z,8.32
2019-05-06T21:36:12.481Z,8.31
2019-05-06T21:38:42.728Z,8.29
2019-05-06T21:41:12.880Z,8.23
2019-05-06T21:43:47.038Z,8.22
2019-05-06T21:46:13.945Z,8.19
2019-05-06T21:48:43.112Z,8.17
2019-05-06T21:51:12.834Z,8.15
2019-05-06T21:53:42.020Z,8.15
2019-05-06T21:56:13.047Z,8.12
2019-05-06T21:58:42.864Z,8.08
2019-05-06T22:01:12.415Z,8.06
2019-05-06T22:03:43.384Z,8.06
2019-05-06T22:06:13.072Z,8.03
2019-05-06T22:08:46.257Z,8.02
2019-05-06T22:11:19.894Z,8.00
2019-05-06T22:14:00.835Z,7.99
2019-05-06T22:16:29.825Z,7.97
2019-05-06T22:19:06.778Z,7.92
2019-05-06T22:21:37.604Z,7.89
2019-05-06T22:24:06.775Z,7.84
2019-05-06T22:26:35.937Z,7.80
2019-05-06T22:29:05.451Z,7.75
2019-05-06T22:31:34.622Z,7.72
2019-05-06T22:34:03.781Z,7.68
2019-05-06T22:36:32.967Z,7.64
2019-05-06T22:39:05.760Z,7.59
2019-05-06T22:41:34.922Z,7.57
2019-05-06T22:44:13.047Z,7.51
2019-05-06T22:46:34.998Z,7.46
2019-05-06T22:49:04.162Z,7.42
2019-05-06T22:51:33.336Z,7.32
2019-05-06T22:54:02.906Z,7.28
2019-05-06T22:56:32.562Z,7.25
2019-05-06T22:59:03.255Z,7.21
2019-05-06T23:01:37.336Z,7.15
2019-05-06T23:04:07.497Z,7.09
2019-05-06T23:06:36.719Z,7.01
2019-05-06T23:09:08.242Z,6.94
2019-05-06T23:11:38.159Z,6.88
2019-05-06T23:14:06.586Z,6.82
2019-05-06T23:16:35.778Z,6.78
2019-05-06T23:19:05.105Z,6.71
2019-05-06T23:21:34.260Z,6.64
2019-05-06T23:24:03.445Z,6.59
2019-05-06T23:26:32.710Z,6.53
2019-05-06T23:29:02.546Z,6.50
2019-05-06T23:31:33.286Z,6.47
2019-05-06T23:34:04.961Z,6.43
2019-05-06T23:36:57.003Z,6.40
2019-05-06T23:40:04.786Z,6.37
2019-05-06T23:43:12.516Z,6.29
2019-05-06T23:46:17.594Z,6.17
2019-05-06T23:49:23.499Z,6.06
2019-05-06T23:52:31.896Z,5.94
2019-05-06T23:55:37.261Z,5.92
2019-05-06T23:58:05.411Z,5.88
